Terminal Aerodrome Forecast
Issued by NWS

Home | Current Version | Previous Version | Text Only | Print | Product List | Glossary On
Versions: 1 2 3 4 5 6 7 8 9 10 11 12 13 14 15
000
FTUS46 KMTR 032331
TAFOAK
TAF
KOAK 032331Z 0400/0506 29014KT P6SM FEW007
     FM040400 30011KT P6SM BKN009
     FM040700 31005KT P6SM OVC008
     FM041700 29006KT P6SM SCT010
     FM042100 30014KT P6SM FEW012
     FM050400 29010KT P6SM BKN010=

USA.gov is the U.S. government's official web portal to all federal, state and local government web resources and services.